sensor_id;sensor_type;location;lat;lon;timestamp;P1;durP1;ratioP1;P2;durP2;ratioP2
66893;SDS011;53801;55.786;49.142;2023-01-05T00:01:58;10.98;;;1.67;;
66893;SDS011;53801;55.786;49.142;2023-01-05T00:13:18;6.97;;;1.85;;
66893;SDS011;53801;55.786;49.142;2023-01-05T00:16:02;3.87;;;1.00;;
66893;SDS011;53801;55.786;49.142;2023-01-05T00:21:37;5.60;;;1.30;;
66893;SDS011;53801;55.786;49.142;2023-01-05T00:24:21;5.00;;;0.90;;
66893;SDS011;53801;55.786;49.142;2023-01-05T00:29:24;5.68;;;1.20;;
66893;SDS011;53801;55.786;49.142;2023-01-05T00:34:41;3.70;;;1.02;;
66893;SDS011;53801;55.786;49.142;2023-01-05T00:37:07;9.27;;;1.43;;
66893;SDS011;53801;55.786;49.142;2023-01-05T00:39:39;4.53;;;1.10;;
66893;SDS011;53801;55.786;49.142;2023-01-05T00:59:40;6.05;;;1.92;;
66893;SDS011;53801;55.786;49.142;2023-01-05T01:11:14;6.75;;;1.65;;
66893;SDS011;53801;55.786;49.142;2023-01-05T01:13:45;5.38;;;1.33;;
66893;SDS011;53801;55.786;49.142;2023-01-05T01:24:46;4.93;;;1.38;;
66893;SDS011;53801;55.786;49.142;2023-01-05T01:30:00;4.43;;;1.15;;
66893;SDS011;53801;55.786;49.142;2023-01-05T01:32:26;7.15;;;2.03;;
66893;SDS011;53801;55.786;49.142;2023-01-05T01:48:57;5.03;;;1.50;;
66893;SDS011;53801;55.786;49.142;2023-01-05T01:54:23;4.85;;;1.40;;
66893;SDS011;53801;55.786;49.142;2023-01-05T02:32:56;10.70;;;3.00;;
66893;SDS011;53801;55.786;49.142;2023-01-05T02:47:01;9.48;;;1.70;;
66893;SDS011;53801;55.786;49.142;2023-01-05T02:52:00;5.07;;;1.60;;
66893;SDS011;53801;55.786;49.142;2023-01-05T02:57:12;6.10;;;1.60;;
66893;SDS011;53801;55.786;49.142;2023-01-05T02:59:40;4.47;;;1.42;;
66893;SDS011;53801;55.786;49.142;2023-01-05T03:13:14;4.78;;;1.42;;
66893;SDS011;53801;55.786;49.142;2023-01-05T03:15:58;4.75;;;1.00;;
66893;SDS011;53801;55.786;49.142;2023-01-05T03:23:36;7.55;;;1.17;;
66893;SDS011;53801;55.786;49.142;2023-01-05T03:29:00;8.90;;;1.83;;
66893;SDS011;53801;55.786;49.142;2023-01-05T03:40:08;5.07;;;1.45;;
66893;SDS011;53801;55.786;49.142;2023-01-05T03:42:44;5.10;;;1.50;;
66893;SDS011;53801;55.786;49.142;2023-01-05T03:45:11;4.45;;;1.67;;
66893;SDS011;53801;55.786;49.142;2023-01-05T03:47:40;8.98;;;2.15;;
66893;SDS011;53801;55.786;49.142;2023-01-05T03:50:18;9.65;;;2.92;;
66893;SDS011;53801;55.786;49.142;2023-01-05T03:52:44;12.40;;;2.93;;
66893;SDS011;53801;55.786;49.142;2023-01-05T03:55:09;10.43;;;3.10;;
66893;SDS011;53801;55.786;49.142;2023-01-05T03:57:36;9.88;;;3.40;;
66893;SDS011;53801;55.786;49.142;2023-01-05T04:02:54;8.00;;;1.83;;
66893;SDS011;53801;55.786;49.142;2023-01-05T04:07:53;2.80;;;1.30;;
66893;SDS011;53801;55.786;49.142;2023-01-05T04:10:19;5.40;;;0.93;;
66893;SDS011;53801;55.786;49.142;2023-01-05T04:12:47;3.77;;;0.80;;
66893;SDS011;53801;55.786;49.142;2023-01-05T04:15:13;4.57;;;1.42;;
66893;SDS011;53801;55.786;49.142;2023-01-05T04:17:45;4.27;;;1.13;;
66893;SDS011;53801;55.786;49.142;2023-01-05T04:22:52;5.32;;;1.17;;
66893;SDS011;53801;55.786;49.142;2023-01-05T04:25:17;4.50;;;1.10;;
66893;SDS011;53801;55.786;49.142;2023-01-05T04:27:45;4.90;;;1.23;;
66893;SDS011;53801;55.786;49.142;2023-01-05T04:32:55;4.57;;;1.65;;
66893;SDS011;53801;55.786;49.142;2023-01-05T04:35:20;5.03;;;1.07;;
66893;SDS011;53801;55.786;49.142;2023-01-05T04:37:48;9.75;;;2.38;;
66893;SDS011;53801;55.786;49.142;2023-01-05T04:40:13;7.80;;;1.20;;
66893;SDS011;53801;55.786;49.142;2023-01-05T04:42:39;5.70;;;1.30;;
66893;SDS011;53801;55.786;49.142;2023-01-05T04:45:06;6.63;;;1.55;;
66893;SDS011;53801;55.786;49.142;2023-01-05T04:47:34;5.10;;;1.50;;
66893;SDS011;53801;55.786;49.142;2023-01-05T04:55:11;4.93;;;1.40;;
66893;SDS011;53801;55.786;49.142;2023-01-05T04:57:38;5.20;;;1.50;;
66893;SDS011;53801;55.786;49.142;2023-01-05T05:00:04;7.40;;;1.30;;
66893;SDS011;53801;55.786;49.142;2023-01-05T05:02:31;3.95;;;1.33;;
66893;SDS011;53801;55.786;49.142;2023-01-05T05:04:56;7.47;;;1.13;;
66893;SDS011;53801;55.786;49.142;2023-01-05T05:13:05;5.72;;;1.38;;
66893;SDS011;53801;55.786;49.142;2023-01-05T05:15:31;4.78;;;1.42;;
66893;SDS011;53801;55.786;49.142;2023-01-05T05:17:56;3.90;;;1.17;;
66893;SDS011;53801;55.786;49.142;2023-01-05T05:38:06;3.97;;;1.05;;
66893;SDS011;53801;55.786;49.142;2023-01-05T05:46:09;4.85;;;1.67;;
66893;SDS011;53801;55.786;49.142;2023-01-05T05:57:45;5.32;;;1.23;;
66893;SDS011;53801;55.786;49.142;2023-01-05T06:02:59;5.83;;;1.83;;
66893;SDS011;53801;55.786;49.142;2023-01-05T06:08:13;4.57;;;1.15;;
66893;SDS011;53801;55.786;49.142;2023-01-05T06:10:39;6.83;;;1.37;;
66893;SDS011;53801;55.786;49.142;2023-01-05T06:13:16;5.13;;;1.23;;
66893;SDS011;53801;55.786;49.142;2023-01-05T06:15:44;4.10;;;1.07;;
66893;SDS011;53801;55.786;49.142;2023-01-05T06:18:10;5.80;;;1.45;;
66893;SDS011;53801;55.786;49.142;2023-01-05T06:20:38;3.03;;;0.82;;
66893;SDS011;53801;55.786;49.142;2023-01-05T06:23:06;5.97;;;1.42;;
66893;SDS011;53801;55.786;49.142;2023-01-05T06:25:31;5.75;;;1.80;;
66893;SDS011;53801;55.786;49.142;2023-01-05T06:28:06;6.10;;;1.52;;
66893;SDS011;53801;55.786;49.142;2023-01-05T06:30:31;5.33;;;1.40;;
66893;SDS011;53801;55.786;49.142;2023-01-05T06:32:59;5.45;;;1.23;;
66893;SDS011;53801;55.786;49.142;2023-01-05T06:35:33;4.10;;;0.85;;
66893;SDS011;53801;55.786;49.142;2023-01-05T06:41:11;4.07;;;1.37;;
66893;SDS011;53801;55.786;49.142;2023-01-05T06:43:43;4.93;;;1.40;;
66893;SDS011;53801;55.786;49.142;2023-01-05T06:46:09;5.15;;;1.50;;
66893;SDS011;53801;55.786;49.142;2023-01-05T06:48:35;4.50;;;1.17;;
66893;SDS011;53801;55.786;49.142;2023-01-05T06:51:02;4.03;;;1.10;;
66893;SDS011;53801;55.786;49.142;2023-01-05T07:05:39;5.27;;;1.67;;
66893;SDS011;53801;55.786;49.142;2023-01-05T07:10:46;6.32;;;1.30;;
66893;SDS011;53801;55.786;49.142;2023-01-05T07:13:19;5.50;;;1.50;;
66893;SDS011;53801;55.786;49.142;2023-01-05T07:15:48;4.47;;;1.48;;
66893;SDS011;53801;55.786;49.142;2023-01-05T07:18:13;7.05;;;1.15;;
66893;SDS011;53801;55.786;49.142;2023-01-05T07:23:17;7.22;;;1.38;;
66893;SDS011;53801;55.786;49.142;2023-01-05T07:25:42;9.57;;;1.90;;
66893;SDS011;53801;55.786;49.142;2023-01-05T07:38:55;5.78;;;1.42;;
66893;SDS011;53801;55.786;49.142;2023-01-05T07:41:37;3.17;;;0.80;;
66893;SDS011;53801;55.786;49.142;2023-01-05T07:47:31;5.17;;;1.80;;
66893;SDS011;53801;55.786;49.142;2023-01-05T07:50:02;4.97;;;0.90;;
66893;SDS011;53801;55.786;49.142;2023-01-05T07:52:44;5.72;;;1.48;;
66893;SDS011;53801;55.786;49.142;2023-01-05T07:55:15;5.85;;;1.60;;
66893;SDS011;53801;55.786;49.142;2023-01-05T07:57:41;6.33;;;1.40;;
66893;SDS011;53801;55.786;49.142;2023-01-05T08:36:09;7.30;;;1.33;;
66893;SDS011;53801;55.786;49.142;2023-01-05T08:47:22;4.85;;;1.42;;
66893;SDS011;53801;55.786;49.142;2023-01-05T08:49:48;5.33;;;1.53;;
66893;SDS011;53801;55.786;49.142;2023-01-05T08:54:51;4.80;;;1.37;;
66893;SDS011;53801;55.786;49.142;2023-01-05T08:57:19;5.25;;;1.42;;
66893;SDS011;53801;55.786;49.142;2023-01-05T09:08:11;6.78;;;1.70;;
66893;SDS011;53801;55.786;49.142;2023-01-05T09:10:39;4.30;;;1.38;;
66893;SDS011;53801;55.786;49.142;2023-01-05T09:13:15;7.60;;;2.58;;
66893;SDS011;53801;55.786;49.142;2023-01-05T09:21:18;4.80;;;1.08;;
66893;SDS011;53801;55.786;49.142;2023-01-05T09:23:44;4.27;;;1.30;;
66893;SDS011;53801;55.786;49.142;2023-01-05T09:26:13;3.87;;;1.20;;
66893;SDS011;53801;55.786;49.142;2023-01-05T09:28:47;6.15;;;1.40;;
66893;SDS011;53801;55.786;49.142;2023-01-05T09:31:22;5.80;;;1.60;;
66893;SDS011;53801;55.786;49.142;2023-01-05T09:33:48;6.90;;;1.43;;
66893;SDS011;53801;55.786;49.142;2023-01-05T09:36:14;4.50;;;1.77;;
66893;SDS011;53801;55.786;49.142;2023-01-05T09:41:43;5.80;;;1.33;;
66893;SDS011;53801;55.786;49.142;2023-01-05T09:46:43;7.55;;;1.80;;
66893;SDS011;53801;55.786;49.142;2023-01-05T09:49:14;8.37;;;2.43;;
66893;SDS011;53801;55.786;49.142;2023-01-05T09:51:42;7.40;;;2.22;;
66893;SDS011;53801;55.786;49.142;2023-01-05T09:54:15;7.28;;;1.83;;
66893;SDS011;53801;55.786;49.142;2023-01-05T12:00:48;15.32;;;4.22;;
66893;SDS011;53801;55.786;49.142;2023-01-05T12:42:03;17.95;;;6.07;;
66893;SDS011;53801;55.786;49.142;2023-01-05T14:07:32;9.25;;;2.83;;
66893;SDS011;53801;55.786;49.142;2023-01-05T14:10:17;10.02;;;2.92;;
66893;SDS011;53801;55.786;49.142;2023-01-05T14:16:22;10.82;;;3.50;;
66893;SDS011;53801;55.786;49.142;2023-01-05T14:18:50;10.50;;;3.83;;
66893;SDS011;53801;55.786;49.142;2023-01-05T14:42:50;9.90;;;2.28;;
66893;SDS011;53801;55.786;49.142;2023-01-05T14:45:33;8.52;;;2.85;;
66893;SDS011;53801;55.786;49.142;2023-01-05T14:53:54;10.02;;;2.97;;
66893;SDS011;53801;55.786;49.142;2023-01-05T15:01:57;11.73;;;3.80;;
66893;SDS011;53801;55.786;49.142;2023-01-05T18:11:50;20.33;;;5.03;;
66893;SDS011;53801;55.786;49.142;2023-01-05T18:36:12;18.70;;;5.60;;
66893;SDS011;53801;55.786;49.142;2023-01-05T18:45:11;24.52;;;6.55;;
66893;SDS011;53801;55.786;49.142;2023-01-05T18:47:47;25.67;;;6.75;;
66893;SDS011;53801;55.786;49.142;2023-01-05T18:50:35;21.45;;;6.68;;
66893;SDS011;53801;55.786;49.142;2023-01-05T18:55:41;20.52;;;6.60;;
66893;SDS011;53801;55.786;49.142;2023-01-05T18:58:17;23.48;;;6.70;;
66893;SDS011;53801;55.786;49.142;2023-01-05T19:01:09;22.13;;;5.80;;
66893;SDS011;53801;55.786;49.142;2023-01-05T19:03:52;21.48;;;5.60;;
66893;SDS011;53801;55.786;49.142;2023-01-05T19:06:27;21.48;;;6.05;;
66893;SDS011;53801;55.786;49.142;2023-01-05T19:12:00;17.27;;;5.47;;
66893;SDS011;53801;55.786;49.142;2023-01-05T19:17:47;18.88;;;5.05;;
66893;SDS011;53801;55.786;49.142;2023-01-05T19:20:19;17.48;;;5.47;;
66893;SDS011;53801;55.786;49.142;2023-01-05T19:22:54;18.40;;;5.43;;
66893;SDS011;53801;55.786;49.142;2023-01-05T19:25:20;17.27;;;4.75;;
66893;SDS011;53801;55.786;49.142;2023-01-05T19:30:31;17.20;;;4.60;;
66893;SDS011;53801;55.786;49.142;2023-01-05T19:33:04;20.97;;;5.27;;
66893;SDS011;53801;55.786;49.142;2023-01-05T19:47:45;17.52;;;4.22;;
66893;SDS011;53801;55.786;49.142;2023-01-05T19:50:14;12.48;;;3.65;;
66893;SDS011;53801;55.786;49.142;2023-01-05T19:55:46;13.18;;;2.95;;
66893;SDS011;53801;55.786;49.142;2023-01-05T19:58:20;14.90;;;3.67;;
66893;SDS011;53801;55.786;49.142;2023-01-05T20:04:32;17.92;;;4.70;;
66893;SDS011;53801;55.786;49.142;2023-01-05T20:07:03;14.05;;;4.28;;
66893;SDS011;53801;55.786;49.142;2023-01-05T20:09:49;13.95;;;3.30;;
66893;SDS011;53801;55.786;49.142;2023-01-05T20:12:43;18.83;;;3.73;;
66893;SDS011;53801;55.786;49.142;2023-01-05T20:15:12;15.07;;;4.47;;
66893;SDS011;53801;55.786;49.142;2023-01-05T20:17:49;12.00;;;3.75;;
66893;SDS011;53801;55.786;49.142;2023-01-05T20:20:31;11.52;;;3.67;;
66893;SDS011;53801;55.786;49.142;2023-01-05T20:23:02;14.37;;;5.20;;
66893;SDS011;53801;55.786;49.142;2023-01-05T20:25:38;16.23;;;4.78;;
66893;SDS011;53801;55.786;49.142;2023-01-05T20:28:24;22.33;;;4.80;;
66893;SDS011;53801;55.786;49.142;2023-01-05T20:33:30;13.95;;;3.47;;
66893;SDS011;53801;55.786;49.142;2023-01-05T20:38:55;15.37;;;4.43;;
66893;SDS011;53801;55.786;49.142;2023-01-05T20:41:30;18.48;;;4.85;;
66893;SDS011;53801;55.786;49.142;2023-01-05T20:43:59;21.10;;;4.93;;
66893;SDS011;53801;55.786;49.142;2023-01-05T20:46:33;20.83;;;4.82;;
66893;SDS011;53801;55.786;49.142;2023-01-05T20:48:59;17.75;;;4.70;;
66893;SDS011;53801;55.786;49.142;2023-01-05T20:51:25;21.95;;;5.38;;
66893;SDS011;53801;55.786;49.142;2023-01-05T20:53:51;21.33;;;5.97;;
66893;SDS011;53801;55.786;49.142;2023-01-05T20:56:18;24.52;;;5.30;;
66893;SDS011;53801;55.786;49.142;2023-01-05T20:58:44;22.60;;;5.15;;
66893;SDS011;53801;55.786;49.142;2023-01-05T21:01:14;29.03;;;5.57;;
66893;SDS011;53801;55.786;49.142;2023-01-05T21:03:42;19.98;;;5.50;;
66893;SDS011;53801;55.786;49.142;2023-01-05T21:06:09;17.50;;;5.53;;
66893;SDS011;53801;55.786;49.142;2023-01-05T21:08:37;27.67;;;7.10;;
66893;SDS011;53801;55.786;49.142;2023-01-05T21:11:04;19.73;;;5.22;;
66893;SDS011;53801;55.786;49.142;2023-01-05T21:13:30;18.50;;;4.80;;
66893;SDS011;53801;55.786;49.142;2023-01-05T21:18:24;13.88;;;4.63;;
66893;SDS011;53801;55.786;49.142;2023-01-05T21:20:50;24.47;;;5.87;;
66893;SDS011;53801;55.786;49.142;2023-01-05T21:23:15;16.33;;;5.28;;
66893;SDS011;53801;55.786;49.142;2023-01-05T21:25:41;14.37;;;3.67;;
66893;SDS011;53801;55.786;49.142;2023-01-05T21:28:07;10.63;;;3.50;;
66893;SDS011;53801;55.786;49.142;2023-01-05T21:30:32;8.85;;;2.28;;
66893;SDS011;53801;55.786;49.142;2023-01-05T21:33:06;7.40;;;1.93;;
66893;SDS011;53801;55.786;49.142;2023-01-05T21:35:31;12.18;;;2.88;;
66893;SDS011;53801;55.786;49.142;2023-01-05T21:37:56;9.77;;;2.67;;
66893;SDS011;53801;55.786;49.142;2023-01-05T21:40:22;8.53;;;3.13;;
66893;SDS011;53801;55.786;49.142;2023-01-05T21:48:25;8.27;;;2.17;;
66893;SDS011;53801;55.786;49.142;2023-01-05T21:50:55;6.23;;;1.70;;
66893;SDS011;53801;55.786;49.142;2023-01-05T21:53:39;8.95;;;1.98;;
66893;SDS011;53801;55.786;49.142;2023-01-05T21:56:22;6.70;;;2.07;;
66893;SDS011;53801;55.786;49.142;2023-01-05T21:58:54;8.20;;;2.13;;
66893;SDS011;53801;55.786;49.142;2023-01-05T22:01:20;6.90;;;2.13;;
66893;SDS011;53801;55.786;49.142;2023-01-05T22:03:47;9.30;;;2.10;;
66893;SDS011;53801;55.786;49.142;2023-01-05T22:06:12;8.65;;;2.50;;
66893;SDS011;53801;55.786;49.142;2023-01-05T22:08:38;7.63;;;1.77;;
66893;SDS011;53801;55.786;49.142;2023-01-05T22:11:03;10.00;;;2.60;;
66893;SDS011;53801;55.786;49.142;2023-01-05T22:16:17;7.78;;;2.40;;
66893;SDS011;53801;55.786;49.142;2023-01-05T22:18:43;8.17;;;2.80;;
66893;SDS011;53801;55.786;49.142;2023-01-05T22:21:13;8.95;;;2.17;;
66893;SDS011;53801;55.786;49.142;2023-01-05T22:23:39;7.20;;;2.30;;
66893;SDS011;53801;55.786;49.142;2023-01-05T22:26:07;10.77;;;3.42;;
66893;SDS011;53801;55.786;49.142;2023-01-05T22:28:36;11.70;;;2.80;;
66893;SDS011;53801;55.786;49.142;2023-01-05T22:31:20;10.13;;;3.10;;
66893;SDS011;53801;55.786;49.142;2023-01-05T22:33:47;18.42;;;4.68;;
66893;SDS011;53801;55.786;49.142;2023-01-05T22:36:14;14.85;;;4.15;;
66893;SDS011;53801;55.786;49.142;2023-01-05T22:38:40;17.10;;;5.00;;
66893;SDS011;53801;55.786;49.142;2023-01-05T22:41:07;8.00;;;2.05;;
66893;SDS011;53801;55.786;49.142;2023-01-05T22:43:34;6.35;;;2.15;;
66893;SDS011;53801;55.786;49.142;2023-01-05T22:46:07;8.33;;;2.53;;
66893;SDS011;53801;55.786;49.142;2023-01-05T22:48:34;3.13;;;1.00;;
66893;SDS011;53801;55.786;49.142;2023-01-05T22:53:48;5.43;;;1.48;;
66893;SDS011;53801;55.786;49.142;2023-01-05T22:56:14;7.90;;;2.37;;
66893;SDS011;53801;55.786;49.142;2023-01-05T22:58:40;7.40;;;2.35;;
66893;SDS011;53801;55.786;49.142;2023-01-05T23:03:38;8.38;;;2.10;;
66893;SDS011;53801;55.786;49.142;2023-01-05T23:06:04;6.97;;;2.45;;
66893;SDS011;53801;55.786;49.142;2023-01-05T23:08:29;8.37;;;2.73;;
66893;SDS011;53801;55.786;49.142;2023-01-05T23:10:59;4.63;;;1.67;;
66893;SDS011;53801;55.786;49.142;2023-01-05T23:13:25;12.00;;;2.40;;
66893;SDS011;53801;55.786;49.142;2023-01-05T23:15:56;8.60;;;2.50;;
66893;SDS011;53801;55.786;49.142;2023-01-05T23:18:22;9.40;;;2.33;;
66893;SDS011;53801;55.786;49.142;2023-01-05T23:21:17;7.97;;;2.53;;
66893;SDS011;53801;55.786;49.142;2023-01-05T23:23:43;10.55;;;2.50;;
66893;SDS011;53801;55.786;49.142;2023-01-05T23:26:09;8.43;;;2.40;;
66893;SDS011;53801;55.786;49.142;2023-01-05T23:28:35;7.50;;;2.13;;
66893;SDS011;53801;55.786;49.142;2023-01-05T23:31:01;8.53;;;2.20;;
66893;SDS011;53801;55.786;49.142;2023-01-05T23:33:27;6.87;;;2.13;;
66893;SDS011;53801;55.786;49.142;2023-01-05T23:35:56;7.00;;;2.38;;
66893;SDS011;53801;55.786;49.142;2023-01-05T23:38:23;5.53;;;1.80;;
66893;SDS011;53801;55.786;49.142;2023-01-05T23:40:49;8.50;;;2.30;;
66893;SDS011;53801;55.786;49.142;2023-01-05T23:43:16;7.70;;;2.13;;
66893;SDS011;53801;55.786;49.142;2023-01-05T23:45:46;7.47;;;2.33;;
66893;SDS011;53801;55.786;49.142;2023-01-05T23:48:12;7.22;;;1.90;;
66893;SDS011;53801;55.786;49.142;2023-01-05T23:50:45;9.65;;;2.78;;
66893;SDS011;53801;55.786;49.142;2023-01-05T23:53:11;7.43;;;1.67;;
66893;SDS011;53801;55.786;49.142;2023-01-05T23:55:39;8.45;;;1.88;;
66893;SDS011;53801;55.786;49.142;2023-01-05T23:58:04;7.32;;;2.17;;
